Aviation Digital Data Service (ADDS)

Output produced by METARs form (2320 UTC 19 January 2019)
found at http://www.aviationweather.gov/metar/data/
 
METAR text: EPWR 192300Z 07002KT 5000 BR NSC M07/M08 Q1019
Conditions at: EPWR (WROCLAW/STRACHOW, PL) observed 2300 UTC 19 January 2019
Temperature: -7.0°C (19°F)
Dewpoint: -8.0°C (18°F) [RH = 93%]
Pressure (altimeter): 30.09 inches Hg (1019.0 mb)
Winds: from the ENE (70 degrees) at 2 MPH (2 knots; 1.0 m/s)
Visibility: 3 miles ( 5 km)
Ceiling: at least 12,000 feet AGL
Clouds: sky clear below 12,000 feet AGL
Weather: BR  (mist)

METAR text: EPWR 192230Z 08002KT 5000 BR NSC M06/M07 Q1019
Conditions at: EPWR (WROCLAW/STRACHOW, PL) observed 2230 UTC 19 January 2019
Temperature: -6.0°C (21°F)
Dewpoint: -7.0°C (19°F) [RH = 93%]
Pressure (altimeter): 30.09 inches Hg (1019.0 mb)
Winds: from the E (80 degrees) at 2 MPH (2 knots; 1.0 m/s)
Visibility: 3 miles ( 5 km)
Ceiling: at least 12,000 feet AGL
Clouds: sky clear below 12,000 feet AGL
Weather: BR  (mist)

Forecast for: EPWR (WROCLAW/STRACHOW, PL)
Text: TAF EPWR 192030Z 1921/2021 11005KT CAVOK
Forecast period: 2100 UTC 19 January 2019 to 2100 UTC 20 January 2019
Forecast type: FROM: standard forecast or significant change
Winds: from the ESE (110 degrees) at 6 MPH (5 knots; 2.6 m/s)
Visibility: 6 or more miles 10+ km)
Ceiling: unknown
Clouds: missing
Weather: NSW  (no significant weather)
Text: TEMPO 1923/2007 3000 BR
Forecast period: 2300 UTC 19 January 2019 to 0700 UTC 20 January 2019
Forecast type: TEMPORARY: The following changes expected for less than half the time period
Visibility: 1.86 miles (2.99 km)
Ceiling: unknown
Clouds: missing
Weather: BR  (mist)
Text: PROB30 2002/2007 0600 FZFG
Forecast period: 0200 to 0700 UTC 20 January 2019
Forecast type: PROBABLE: 30 percent likelihood of the following during this time
Visibility: 0.37 miles (0.60 km)
Ceiling: unknown
Clouds: missing
Weather: FZFG  (freezing fog)